Airport View

Enter AWOS ICAO identifier for current METAR.

ex. KFNL

KBGE 101455Z AUTO 29007KT 190V080 10SM BKN025 BKN032 BKN120 31/24 A3013 RMK AO2 T03100239

10 Aug 2020 15:19

Frequency: 121.125

Phone: 229-248-2104

Other Area AWOS: K17J - K2J9 - KCXU - KBIJ

TAF KTLH 101120Z 1012/1112 26004KT P6SM FEW045 SCT250 FM101800 22006KT P6SM SCT050 TEMPO 1021/1101 2SM TSRA SCT030CB BKN050 FM110100 VRB06KT 6SM -SHRA VCTS BKN050CB BKN150 FM110400 VRB03KT P6SM BKN100